createdAt,value
2023-08-26T00:01:39.922Z,90.20
2023-08-26T00:04:07.206Z,90.20
2023-08-26T00:06:36.730Z,90.20
2023-08-26T00:09:04.266Z,90.30
2023-08-26T00:11:31.177Z,90.30
2023-08-26T00:13:58.239Z,90.40
2023-08-26T00:16:25.588Z,90.50
2023-08-26T00:18:54.154Z,90.60
2023-08-26T00:21:23.017Z,90.60
2023-08-26T00:23:53.040Z,90.60
2023-08-26T00:26:20.206Z,90.80
2023-08-26T00:28:47.407Z,90.90
2023-08-26T00:31:14.716Z,90.80
2023-08-26T00:33:41.672Z,91.10
2023-08-26T00:36:08.624Z,91.10
2023-08-26T00:38:35.614Z,91.20
2023-08-26T00:41:02.551Z,91.20
2023-08-26T00:43:30.207Z,91.10
2023-08-26T00:45:57.212Z,91.20
2023-08-26T00:48:25.195Z,91.20
2023-08-26T00:50:55.056Z,91.20
2023-08-26T00:53:22.937Z,91.30
2023-08-26T00:55:51.228Z,91.30
2023-08-26T00:58:18.384Z,91.20
2023-08-26T01:00:46.944Z,91.40
2023-08-26T01:03:13.911Z,91.30
2023-08-26T01:05:42.096Z,91.30
2023-08-26T01:08:09.445Z,91.20
2023-08-26T01:10:39.202Z,91.20
2023-08-26T01:13:12.610Z,91.10
2023-08-26T01:15:44.115Z,91.10
2023-08-26T01:18:14.867Z,91.10
2023-08-26T01:20:43.490Z,91.10
2023-08-26T01:23:30.937Z,91.10
2023-08-26T01:25:57.834Z,91.00
2023-08-26T01:28:24.802Z,91.10
2023-08-26T01:30:51.862Z,91.10
2023-08-26T01:33:26.303Z,91.10
2023-08-26T01:35:59.958Z,91.00
2023-08-26T01:38:27.928Z,91.00
2023-08-26T01:40:57.345Z,91.10
2023-08-26T01:43:25.602Z,91.10
2023-08-26T01:45:53.580Z,91.00
2023-08-26T01:48:20.541Z,91.10
2023-08-26T01:50:48.612Z,91.10
2023-08-26T01:53:15.587Z,91.20
2023-08-26T01:55:42.531Z,91.10
2023-08-26T01:58:09.703Z,91.10
2023-08-26T02:00:36.596Z,91.10
2023-08-26T02:03:04.970Z,91.20
2023-08-26T02:05:32.007Z,91.20
2023-08-26T02:07:59.102Z,91.20
2023-08-26T02:10:26.266Z,91.20
2023-08-26T02:12:53.167Z,91.10
2023-08-26T02:15:20.132Z,91.10
2023-08-26T02:17:47.082Z,91.00
2023-08-26T02:20:14.138Z,91.00
2023-08-26T02:22:41.102Z,91.00
2023-08-26T02:25:09.150Z,91.00
2023-08-26T02:27:36.092Z,91.00
2023-08-26T02:30:03.688Z,91.00
2023-08-26T02:32:30.685Z,90.90
2023-08-26T02:34:57.627Z,90.90
2023-08-26T02:37:24.554Z,90.90
2023-08-26T02:39:51.534Z,90.60
2023-08-26T02:42:19.218Z,90.90
2023-08-26T02:44:46.436Z,90.90
2023-08-26T02:47:13.351Z,91.20
2023-08-26T02:49:40.216Z,90.90
2023-08-26T02:52:07.158Z,90.90
2023-08-26T02:54:34.784Z,91.00
2023-08-26T02:57:04.160Z,90.90
2023-08-26T02:59:31.291Z,90.90
2023-08-26T03:02:10.119Z,90.80
2023-08-26T03:04:37.148Z,90.80
2023-08-26T03:07:04.221Z,90.80
2023-08-26T03:09:31.175Z,90.70
2023-08-26T03:11:59.860Z,90.70
2023-08-26T03:14:26.964Z,90.80
2023-08-26T03:16:53.861Z,90.60
2023-08-26T03:19:23.070Z,90.70
2023-08-26T03:21:50.570Z,90.70
2023-08-26T03:24:20.384Z,90.60
2023-08-26T03:26:47.344Z,90.70
2023-08-26T03:29:14.239Z,90.70
2023-08-26T03:31:41.203Z,90.60
2023-08-26T03:34:08.182Z,90.60
2023-08-26T03:36:35.127Z,90.70
2023-08-26T03:39:02.284Z,90.60
2023-08-26T03:41:29.336Z,90.60
2023-08-26T03:43:57.780Z,90.60
2023-08-26T03:46:25.306Z,90.60
2023-08-26T03:48:52.361Z,90.50
2023-08-26T03:51:19.240Z,90.50
2023-08-26T03:53:46.139Z,90.50
2023-08-26T03:56:15.035Z,90.40
2023-08-26T03:58:42.101Z,90.40
2023-08-26T04:01:09.649Z,90.40
2023-08-26T04:03:36.869Z,90.40
2023-08-26T04:06:06.138Z,90.50
2023-08-26T04:08:34.044Z,90.40
2023-08-26T04:11:02.100Z,90.40
2023-08-26T04:13:30.513Z,90.40
2023-08-26T04:15:58.502Z,90.40
2023-08-26T04:18:26.093Z,90.50
2023-08-26T04:20:54.080Z,90.40
2023-08-26T04:23:21.466Z,90.70
2023-08-26T04:25:48.527Z,90.60
2023-08-26T04:28:18.285Z,90.60
2023-08-26T04:30:48.674Z,90.50
2023-08-26T04:33:17.431Z,90.60
2023-08-26T04:35:44.563Z,90.50
2023-08-26T04:38:11.533Z,90.60
2023-08-26T04:40:39.657Z,90.60
2023-08-26T04:43:06.629Z,90.60
2023-08-26T04:45:33.534Z,90.50
2023-08-26T04:48:00.617Z,90.50
2023-08-26T04:50:27.721Z,90.50
2023-08-26T04:52:54.648Z,90.50
2023-08-26T04:55:22.477Z,90.50
2023-08-26T04:57:49.422Z,90.50
2023-08-26T05:00:18.364Z,90.50
2023-08-26T05:02:46.246Z,90.50
2023-08-26T05:05:13.349Z,90.80
2023-08-26T05:07:40.292Z,90.60
2023-08-26T05:10:08.501Z,90.60
2023-08-26T05:12:35.692Z,90.60
2023-08-26T05:15:04.360Z,90.60
2023-08-26T05:17:31.613Z,90.60
2023-08-26T05:19:58.818Z,90.60
2023-08-26T05:22:25.700Z,90.70
2023-08-26T05:24:52.752Z,90.60
2023-08-26T05:27:21.166Z,90.70
2023-08-26T05:29:48.504Z,90.60
2023-08-26T05:32:15.447Z,90.60
2023-08-26T05:34:42.393Z,90.70
2023-08-26T05:37:09.330Z,90.80
2023-08-26T05:39:36.313Z,90.90
2023-08-26T05:42:03.441Z,90.80
2023-08-26T05:44:31.537Z,90.90
2023-08-26T05:46:58.409Z,91.00
2023-08-26T05:49:25.361Z,91.00
2023-08-26T05:51:52.259Z,91.10
2023-08-26T05:54:19.138Z,91.10
2023-08-26T05:56:46.105Z,91.10
2023-08-26T05:59:14.208Z,91.10
2023-08-26T06:01:41.158Z,91.20
2023-08-26T06:04:08.525Z,91.30
2023-08-26T06:06:35.678Z,91.30
2023-08-26T06:09:03.637Z,91.30
2023-08-26T06:11:30.847Z,91.40
2023-08-26T06:13:59.785Z,91.30
2023-08-26T06:16:29.205Z,91.40
2023-08-26T06:18:58.605Z,91.40
2023-08-26T06:21:25.553Z,91.40
2023-08-26T06:23:52.855Z,91.40
2023-08-26T06:26:19.759Z,91.50
2023-08-26T06:28:46.624Z,91.50
2023-08-26T06:31:13.552Z,91.50
2023-08-26T06:33:40.844Z,91.50
2023-08-26T06:36:08.788Z,91.60
2023-08-26T06:38:35.727Z,91.60
2023-08-26T06:41:02.685Z,91.60
2023-08-26T06:43:29.987Z,91.60
2023-08-26T06:45:58.356Z,91.60
2023-08-26T06:48:25.335Z,91.60
2023-08-26T06:50:53.435Z,91.70
2023-08-26T06:53:23.107Z,91.70
2023-08-26T06:55:53.796Z,91.70
2023-08-26T06:58:21.736Z,91.90
2023-08-26T07:00:49.205Z,91.90
2023-08-26T07:03:16.487Z,91.90
2023-08-26T07:05:45.006Z,90.30
2023-08-26T07:08:12.109Z,91.60
2023-08-26T07:10:39.005Z,91.20
2023-08-26T07:13:06.453Z,91.50
2023-08-26T07:15:33.472Z,90.90
2023-08-26T07:18:01.449Z,90.40
2023-08-26T07:20:28.588Z,90.10
2023-08-26T07:22:55.566Z,89.70
2023-08-26T07:25:22.855Z,89.50
2023-08-26T07:27:49.901Z,89.30
2023-08-26T07:30:16.843Z,89.00
2023-08-26T07:32:43.896Z,88.90
2023-08-26T07:35:11.608Z,88.70
2023-08-26T07:37:38.966Z,88.60
2023-08-26T07:40:09.404Z,88.50
2023-08-26T07:42:36.884Z,88.50
2023-08-26T07:45:04.314Z,88.70
2023-08-26T07:50:01.188Z,88.40
2023-08-26T07:52:30.078Z,88.60
2023-08-26T07:54:57.462Z,89.00
2023-08-26T07:57:25.801Z,88.80
2023-08-26T07:59:53.184Z,88.90
2023-08-26T08:02:20.161Z,88.60
2023-08-26T08:04:48.515Z,88.50
2023-08-26T08:07:16.943Z,88.50
2023-08-26T08:09:43.929Z,88.50
2023-08-26T08:12:10.859Z,88.60
2023-08-26T08:14:37.900Z,88.70
2023-08-26T08:17:06.009Z,88.60
2023-08-26T08:19:38.025Z,88.40
2023-08-26T08:22:04.951Z,88.50
2023-08-26T08:24:31.885Z,88.30
2023-08-26T08:26:58.935Z,88.20
2023-08-26T08:29:26.015Z,88.10
2023-08-26T08:31:53.215Z,88.00
2023-08-26T08:34:20.125Z,87.70
2023-08-26T08:36:47.047Z,87.80
2023-08-26T08:39:14.089Z,86.90
2023-08-26T08:41:42.811Z,86.80
2023-08-26T08:44:14.132Z,86.90
2023-08-26T08:46:42.011Z,86.50
2023-08-26T08:49:09.407Z,86.60
2023-08-26T08:51:37.929Z,86.80
2023-08-26T08:54:05.791Z,87.00
2023-08-26T08:56:35.740Z,87.10
2023-08-26T08:59:05.772Z,87.30
2023-08-26T09:01:33.062Z,87.20
2023-08-26T09:03:59.922Z,87.10
2023-08-26T09:06:28.041Z,87.20
2023-08-26T09:08:58.496Z,87.10
2023-08-26T09:11:25.473Z,87.20
2023-08-26T09:13:52.698Z,87.20
2023-08-26T09:16:45.786Z,87.20
2023-08-26T09:19:14.506Z,87.30
2023-08-26T09:21:45.917Z,87.30
2023-08-26T09:24:17.364Z,87.30
2023-08-26T09:26:49.234Z,87.30
2023-08-26T09:29:20.801Z,87.20
2023-08-26T09:31:52.777Z,87.10
2023-08-26T09:34:34.128Z,87.20
2023-08-26T09:37:02.038Z,87.20
2023-08-26T09:39:29.387Z,87.20
2023-08-26T09:41:58.141Z,87.10
2023-08-26T09:44:25.169Z,87.10
2023-08-26T09:46:57.850Z,87.00
2023-08-26T09:49:25.195Z,87.60
2023-08-26T09:51:53.800Z,86.90
2023-08-26T09:54:22.932Z,86.90
2023-08-26T09:56:50.595Z,86.80
2023-08-26T09:59:18.653Z,86.70
2023-08-26T10:01:46.255Z,86.60
2023-08-26T10:04:17.269Z,86.60
2023-08-26T10:06:48.303Z,86.60
2023-08-26T10:09:43.836Z,86.50
2023-08-26T10:12:22.676Z,86.60
2023-08-26T10:14:52.343Z,86.50
2023-08-26T10:17:22.286Z,86.50
2023-08-26T10:19:49.867Z,86.60
2023-08-26T10:22:16.827Z,86.70
2023-08-26T10:24:46.025Z,86.70
2023-08-26T10:27:13.188Z,86.80
2023-08-26T10:29:42.068Z,86.80
2023-08-26T10:32:19.864Z,86.80
2023-08-26T10:34:55.277Z,86.80
2023-08-26T10:37:29.822Z,86.80
2023-08-26T10:40:04.855Z,86.80
2023-08-26T10:42:31.717Z,86.70
2023-08-26T10:44:59.035Z,86.70
2023-08-26T10:47:46.139Z,86.80
2023-08-26T10:50:26.772Z,86.70
2023-08-26T10:52:59.740Z,86.70
2023-08-26T10:55:33.610Z,86.60
2023-08-26T10:58:10.131Z,86.60
2023-08-26T11:00:39.322Z,86.60
2023-08-26T11:03:09.978Z,86.80
2023-08-26T11:05:38.297Z,86.70
2023-08-26T11:08:06.403Z,86.70
2023-08-26T11:10:35.210Z,86.60
2023-08-26T11:13:03.786Z,86.60
2023-08-26T11:15:40.831Z,86.60
2023-08-26T11:18:09.747Z,86.60
2023-08-26T11:20:37.530Z,86.70
2023-08-26T11:23:06.136Z,86.70
2023-08-26T11:25:35.268Z,86.70
2023-08-26T11:28:06.023Z,86.70
2023-08-26T11:30:44.329Z,86.80
2023-08-26T11:33:17.033Z,86.80
2023-08-26T11:35:58.551Z,86.80
2023-08-26T11:38:38.163Z,86.90
2023-08-26T11:41:09.046Z,86.80
2023-08-26T11:43:37.020Z,86.90
2023-08-26T11:46:06.526Z,87.00
2023-08-26T11:48:39.239Z,87.10
2023-08-26T11:51:06.995Z,87.10
2023-08-26T11:53:36.704Z,87.20
2023-08-26T11:56:03.862Z,87.30
2023-08-26T11:58:32.105Z,87.30
2023-08-26T12:00:59.341Z,87.40
2023-08-26T12:03:30.794Z,87.50
2023-08-26T12:05:57.738Z,87.70
2023-08-26T12:08:24.808Z,87.80
2023-08-26T12:10:53.487Z,88.50
2023-08-26T12:13:20.888Z,88.00
2023-08-26T12:15:48.403Z,88.00
2023-08-26T12:18:19.942Z,88.10
2023-08-26T12:20:51.263Z,88.20
2023-08-26T12:23:20.350Z,88.20
2023-08-26T12:25:47.344Z,88.20
2023-08-26T12:28:20.250Z,88.30
2023-08-26T12:30:48.562Z,88.40
2023-08-26T12:33:25.216Z,89.10
2023-08-26T12:35:54.519Z,89.90
2023-08-26T12:38:21.796Z,89.50
2023-08-26T12:40:52.025Z,90.10
2023-08-26T12:43:22.511Z,89.90
2023-08-26T12:45:50.672Z,89.80
2023-08-26T12:48:31.000Z,89.70
2023-08-26T12:51:00.855Z,89.70
2023-08-26T12:53:27.831Z,89.60
2023-08-26T12:55:54.777Z,89.40
2023-08-26T12:58:28.041Z,89.30
2023-08-26T13:00:55.029Z,89.20
2023-08-26T13:03:22.148Z,89.20
2023-08-26T13:05:50.108Z,89.10
2023-08-26T13:08:17.148Z,89.10
2023-08-26T13:10:44.135Z,89.10
2023-08-26T13:13:11.122Z,89.00
2023-08-26T13:15:39.609Z,89.00
2023-08-26T13:18:06.794Z,89.00
2023-08-26T13:20:33.830Z,89.00
2023-08-26T13:23:04.179Z,89.00
2023-08-26T13:25:31.473Z,89.00
2023-08-26T13:27:58.661Z,89.00
2023-08-26T13:30:26.058Z,89.00
2023-08-26T13:32:53.166Z,89.00
2023-08-26T13:35:20.235Z,89.00
2023-08-26T13:37:47.191Z,89.00
2023-08-26T13:40:16.400Z,89.10
2023-08-26T13:42:43.337Z,89.00
2023-08-26T13:45:10.423Z,89.00
2023-08-26T13:47:37.309Z,89.00
2023-08-26T13:50:04.459Z,88.90
2023-08-26T13:52:31.445Z,89.60
2023-08-26T13:54:58.364Z,89.00
2023-08-26T13:57:25.920Z,88.90
2023-08-26T13:59:53.260Z,88.90
2023-08-26T14:02:21.848Z,88.90
2023-08-26T14:04:48.872Z,88.80
2023-08-26T14:07:15.806Z,88.80
2023-08-26T14:09:43.360Z,88.90
2023-08-26T14:12:10.472Z,88.90
2023-08-26T14:14:38.260Z,88.80
2023-08-26T14:17:05.329Z,88.90
2023-08-26T14:19:32.277Z,88.80
2023-08-26T14:22:00.539Z,88.80
2023-08-26T14:24:27.465Z,88.80
2023-08-26T14:26:54.416Z,88.80
2023-08-26T14:29:21.383Z,88.80
2023-08-26T14:31:48.270Z,88.80
2023-08-26T14:34:15.243Z,88.80
2023-08-26T14:36:42.478Z,88.80
2023-08-26T14:39:10.614Z,88.80
2023-08-26T14:41:38.000Z,88.80
2023-08-26T14:44:07.062Z,88.70
2023-08-26T14:46:34.282Z,88.70
2023-08-26T14:49:01.518Z,88.80
2023-08-26T14:51:28.450Z,88.70
2023-08-26T14:53:56.647Z,88.70
2023-08-26T14:56:23.585Z,88.70
2023-08-26T14:58:50.566Z,88.70
2023-08-26T15:01:17.517Z,88.70
2023-08-26T15:03:44.571Z,88.70
2023-08-26T15:06:11.506Z,88.60
2023-08-26T15:08:38.610Z,88.60
2023-08-26T15:11:05.564Z,88.60
2023-08-26T15:13:32.495Z,88.60
2023-08-26T15:15:59.486Z,88.60
2023-08-26T15:18:26.553Z,88.60
2023-08-26T15:20:55.169Z,88.50
2023-08-26T15:23:22.150Z,88.50
2023-08-26T15:25:49.614Z,88.50
2023-08-26T15:28:16.785Z,88.50
2023-08-26T15:30:55.355Z,88.50
2023-08-26T15:33:23.167Z,88.40
2023-08-26T15:35:54.464Z,88.40
2023-08-26T15:38:23.208Z,88.40
2023-08-26T15:40:59.583Z,88.40
2023-08-26T15:43:27.379Z,88.40
2023-08-26T15:45:54.977Z,88.40
2023-08-26T15:48:24.147Z,88.40
2023-08-26T15:50:51.720Z,88.40
2023-08-26T15:53:19.130Z,88.40
2023-08-26T15:55:46.768Z,88.30
2023-08-26T15:58:15.878Z,88.40
2023-08-26T16:00:43.561Z,88.40
2023-08-26T16:03:10.620Z,88.40
2023-08-26T16:05:39.282Z,88.30
2023-08-26T16:08:08.137Z,88.40
2023-08-26T16:10:35.651Z,88.30
2023-08-26T16:13:02.987Z,88.40
2023-08-26T16:15:30.072Z,88.40
2023-08-26T16:17:57.100Z,88.40
2023-08-26T16:20:24.082Z,88.40
2023-08-26T16:22:51.255Z,88.40
2023-08-26T16:25:18.591Z,88.40
2023-08-26T16:27:47.468Z,88.50
2023-08-26T16:30:14.479Z,88.50
2023-08-26T16:32:43.918Z,88.40
2023-08-26T16:35:14.233Z,88.60
2023-08-26T16:37:41.272Z,88.60
2023-08-26T16:40:08.680Z,88.60
2023-08-26T16:42:38.567Z,88.60
2023-08-26T16:45:06.020Z,88.70
2023-08-26T16:47:34.290Z,88.90
2023-08-26T16:50:01.198Z,89.00
2023-08-26T16:52:28.114Z,89.10
2023-08-26T16:54:55.041Z,89.20
2023-08-26T16:57:21.906Z,89.30
2023-08-26T16:59:48.924Z,89.60
2023-08-26T17:02:16.165Z,90.20
2023-08-26T17:04:43.180Z,90.00
2023-08-26T17:07:10.234Z,90.10
2023-08-26T17:09:37.106Z,90.20
2023-08-26T17:12:04.572Z,90.30
2023-08-26T17:14:32.616Z,90.30
2023-08-26T17:17:01.267Z,90.30
2023-08-26T17:19:29.257Z,90.50
2023-08-26T17:22:00.943Z,90.50
2023-08-26T17:24:28.737Z,90.90
2023-08-26T17:26:56.844Z,90.70
2023-08-26T17:29:23.769Z,90.70
2023-08-26T17:31:52.117Z,90.80
2023-08-26T17:34:19.545Z,90.90
2023-08-26T17:36:46.832Z,90.90
2023-08-26T17:39:14.506Z,91.00
2023-08-26T17:41:41.542Z,91.00
2023-08-26T17:44:08.631Z,91.10
2023-08-26T17:46:36.988Z,91.00
2023-08-26T17:49:04.046Z,91.10
2023-08-26T17:51:32.169Z,91.10
2023-08-26T17:54:00.751Z,91.10
2023-08-26T17:56:27.675Z,91.00
2023-08-26T17:58:55.199Z,91.10
2023-08-26T18:01:22.342Z,91.10
2023-08-26T18:03:49.419Z,91.00
2023-08-26T18:06:17.775Z,90.80
2023-08-26T18:08:45.152Z,90.80
2023-08-26T18:11:13.424Z,90.70
2023-08-26T18:13:41.934Z,90.60
2023-08-26T18:16:08.953Z,90.60
2023-08-26T18:18:35.975Z,90.60
2023-08-26T18:21:03.558Z,90.60
2023-08-26T18:23:30.443Z,90.60
2023-08-26T18:25:58.977Z,90.60
2023-08-26T18:28:26.040Z,90.50
2023-08-26T18:30:54.277Z,90.40
2023-08-26T18:33:21.294Z,90.50
2023-08-26T18:35:49.740Z,90.50
2023-08-26T18:38:23.158Z,90.30
2023-08-26T18:41:00.748Z,90.40
2023-08-26T18:43:32.462Z,90.20
2023-08-26T18:45:59.489Z,90.30
2023-08-26T18:48:27.548Z,90.30
2023-08-26T18:51:01.819Z,90.20
2023-08-26T18:53:30.445Z,90.20
2023-08-26T18:55:57.353Z,90.10
2023-08-26T18:58:26.419Z,90.10
2023-08-26T19:00:55.783Z,90.10
2023-08-26T19:03:23.311Z,90.10
2023-08-26T19:05:55.793Z,90.10
2023-08-26T19:08:24.264Z,90.00
2023-08-26T19:10:57.016Z,90.00
2023-08-26T19:13:24.225Z,90.00
2023-08-26T19:15:54.747Z,90.00
2023-08-26T19:18:21.693Z,90.10
2023-08-26T19:20:52.686Z,89.90
2023-08-26T19:23:19.840Z,90.20
2023-08-26T19:25:52.426Z,89.90
2023-08-26T19:28:20.956Z,90.20
2023-08-26T19:30:48.410Z,89.70
2023-08-26T19:33:15.856Z,89.60
2023-08-26T19:35:45.520Z,89.80
2023-08-26T19:38:12.407Z,89.70
2023-08-26T19:40:39.397Z,89.60
2023-08-26T19:43:09.128Z,89.70
2023-08-26T19:45:37.673Z,89.60
2023-08-26T19:48:06.649Z,89.60
2023-08-26T19:50:36.507Z,89.40
2023-08-26T19:53:03.520Z,90.00
2023-08-26T19:55:30.550Z,89.50
2023-08-26T19:57:57.649Z,89.50
2023-08-26T20:00:24.810Z,89.60
2023-08-26T20:02:53.130Z,89.50
2023-08-26T20:05:20.532Z,89.50
2023-08-26T20:07:48.969Z,89.40
2023-08-26T20:10:16.411Z,89.50
2023-08-26T20:12:44.361Z,89.30
2023-08-26T20:15:16.000Z,89.50
2023-08-26T20:17:44.225Z,89.40
2023-08-26T20:20:12.454Z,89.40
2023-08-26T20:22:40.713Z,89.30
2023-08-26T20:25:08.706Z,89.50
2023-08-26T20:27:35.763Z,89.40
2023-08-26T20:30:04.809Z,89.00
2023-08-26T20:32:31.716Z,89.40
2023-08-26T20:34:59.368Z,88.90
2023-08-26T20:37:27.878Z,89.00
2023-08-26T20:39:55.030Z,89.40
2023-08-26T20:42:26.491Z,89.50
2023-08-26T20:44:54.594Z,89.70
2023-08-26T20:47:23.041Z,89.80
2023-08-26T20:49:50.825Z,89.90
2023-08-26T20:52:19.515Z,90.00
2023-08-26T20:54:46.444Z,90.10
2023-08-26T20:57:13.664Z,90.10
2023-08-26T20:59:43.187Z,90.10
2023-08-26T21:02:10.089Z,90.10
2023-08-26T21:04:37.387Z,90.10
2023-08-26T21:07:04.807Z,90.20
2023-08-26T21:09:31.748Z,90.10
2023-08-26T21:11:58.685Z,90.30
2023-08-26T21:14:25.572Z,90.30
2023-08-26T21:16:52.527Z,90.30
2023-08-26T21:19:19.554Z,90.40
2023-08-26T21:21:46.480Z,90.40
2023-08-26T21:24:13.583Z,90.40
2023-08-26T21:26:40.480Z,90.50
2023-08-26T21:29:07.366Z,90.50
2023-08-26T21:31:34.289Z,90.50
2023-08-26T21:34:01.220Z,90.60
2023-08-26T21:36:28.191Z,90.60
2023-08-26T21:38:55.342Z,90.60
2023-08-26T21:41:22.230Z,90.50
2023-08-26T21:43:55.652Z,90.60
2023-08-26T21:46:22.621Z,90.70
2023-08-26T21:48:49.500Z,90.80
2023-08-26T21:51:16.413Z,90.80
2023-08-26T21:53:43.344Z,90.90
2023-08-26T21:56:10.216Z,90.90
2023-08-26T21:58:37.114Z,91.00
2023-08-26T22:01:04.136Z,91.00
2023-08-26T22:03:31.182Z,91.00
2023-08-26T22:06:00.262Z,91.00
2023-08-26T22:08:28.460Z,91.00
2023-08-26T22:10:55.385Z,91.10
2023-08-26T22:13:22.445Z,91.10
2023-08-26T22:15:51.696Z,91.20
2023-08-26T22:18:18.702Z,91.40
2023-08-26T22:20:46.335Z,91.40
2023-08-26T22:23:13.339Z,91.50
2023-08-26T22:25:40.313Z,91.70
2023-08-26T22:28:07.242Z,91.80
2023-08-26T22:30:34.729Z,91.90
2023-08-26T22:33:02.328Z,91.90
2023-08-26T22:35:29.831Z,92.00
2023-08-26T22:37:56.705Z,92.00
2023-08-26T22:40:23.639Z,92.10
2023-08-26T22:42:50.507Z,92.10
2023-08-26T22:45:17.469Z,92.00
2023-08-26T22:47:44.652Z,92.00
2023-08-26T22:50:12.779Z,92.00
2023-08-26T22:52:39.787Z,91.90
2023-08-26T22:55:07.652Z,92.00
2023-08-26T22:57:34.597Z,92.00
2023-08-26T23:00:01.619Z,92.10
2023-08-26T23:02:28.639Z,92.00
2023-08-26T23:04:56.400Z,92.10
2023-08-26T23:07:25.697Z,92.10
2023-08-26T23:09:52.684Z,92.10
2023-08-26T23:12:19.571Z,92.10
2023-08-26T23:14:46.938Z,92.10
2023-08-26T23:17:13.927Z,92.40
2023-08-26T23:19:40.819Z,92.10
2023-08-26T23:22:08.601Z,92.10
2023-08-26T23:24:37.021Z,92.10
2023-08-26T23:27:04.448Z,92.30
2023-08-26T23:29:31.540Z,92.20
2023-08-26T23:31:58.600Z,92.30
2023-08-26T23:34:26.141Z,92.50
2023-08-26T23:36:53.058Z,92.30
2023-08-26T23:39:20.170Z,92.40
2023-08-26T23:41:47.083Z,92.50
2023-08-26T23:44:14.044Z,92.50
2023-08-26T23:46:40.992Z,92.50
2023-08-26T23:49:07.911Z,92.60
2023-08-26T23:51:34.864Z,92.60
2023-08-26T23:54:03.007Z,92.70
2023-08-26T23:56:29.941Z,92.70
2023-08-26T23:58:58.076Z,92.70
